Time;durP1;ratioP1;P1;durP2;ratioP2;P2;SDS_P1;SDS_P2;PMS_P1;PMS_P2;Temp;Humidity;BMP_temperature;BMP_pressure;BME280_temperature;BME280_humidity;BME280_pressure;Samples;Min_cycle;Max_cycle;Signal;HPM_P1;HPM_P2
2021/04/03 00:02:24;;;;;;;4.63;2.58;;;;;;;8.00;50.98;98261.56;5043511;28;20238;-79
2021/04/03 00:04:51;;;;;;;4.28;2.42;;;;;;;8.01;51.12;98253.72;5043922;28;20227;-79
2021/04/03 00:07:17;;;;;;;5.65;2.60;;;;;;;8.03;51.13;98245.88;5042598;28;20245;-80
2021/04/03 00:09:43;;;;;;;4.75;2.60;;;;;;;8.06;51.43;98253.59;5044753;28;20229;-80
2021/04/03 00:12:11;;;;;;;4.78;2.50;;;;;;;8.05;50.69;98254.47;5045008;28;20234;-80
2021/04/03 00:14:37;;;;;;;6.00;2.60;;;;;;;8.01;51.42;98253.72;5044839;28;20232;-79
2021/04/03 00:17:03;;;;;;;6.97;2.63;;;;;;;8.01;50.96;98252.88;5045112;28;20237;-79
2021/04/03 00:19:29;;;;;;;2.90;2.33;;;;;;;8.05;50.58;98251.88;5044511;28;20297;-79
2021/04/03 00:21:56;;;;;;;6.40;2.88;;;;;;;8.09;50.91;98251.78;5047257;28;20909;-78
2021/04/03 00:24:22;;;;;;;6.18;2.92;;;;;;;8.11;50.74;98251.75;5047881;28;20226;-79
2021/04/03 00:26:48;;;;;;;4.75;2.83;;;;;;;8.14;51.29;98254.22;5051471;28;20229;-80
2021/04/03 00:29:15;;;;;;;5.63;2.70;;;;;;;8.11;50.63;98251.75;5049035;28;20871;-79
2021/04/03 00:31:41;;;;;;;5.35;2.50;;;;;;;8.17;51.11;98246.38;5046111;28;20256;-79
2021/04/03 00:34:07;;;;;;;6.38;2.90;;;;;;;8.21;51.12;98244.53;5048886;28;20253;-79
2021/04/03 00:36:33;;;;;;;4.95;2.55;;;;;;;8.21;51.23;98250.56;5048221;28;20240;-79
2021/04/03 00:39:00;;;;;;;5.38;2.78;;;;;;;8.11;51.00;98252.59;5050274;28;20323;-79
2021/04/03 00:41:26;;;;;;;6.85;2.80;;;;;;;7.94;52.06;98251.31;5047577;28;20237;-79
2021/04/03 00:43:52;;;;;;;5.10;2.33;;;;;;;7.83;52.09;98252.47;5047893;28;20679;-79
2021/04/03 00:46:18;;;;;;;6.80;2.50;;;;;;;7.71;51.69;98251.03;5046429;28;20727;-80
2021/04/03 00:48:45;;;;;;;5.50;2.25;;;;;;;7.69;51.52;98258.00;5046724;28;20245;-80
2021/04/03 00:51:12;;;;;;;6.47;2.22;;;;;;;7.64;52.30;98259.00;5047251;28;20310;-79
2021/04/03 00:53:38;;;;;;;4.93;2.35;;;;;;;7.59;51.83;98255.66;5046754;28;20244;-80
2021/04/03 00:56:06;;;;;;;8.57;2.33;;;;;;;7.59;52.16;98251.34;5048511;28;20234;-79
2021/04/03 00:58:32;;;;;;;4.72;2.35;;;;;;;7.60;51.63;98252.19;5047149;28;20226;-80
2021/04/03 01:00:59;;;;;;;5.47;2.20;;;;;;;7.53;51.98;98252.34;5049401;28;20249;-79
2021/04/03 01:03:25;;;;;;;5.03;1.98;;;;;;;7.45;52.10;98253.44;5046046;28;20222;-78
2021/04/03 01:05:52;;;;;;;5.15;2.28;;;;;;;7.38;52.07;98247.53;5048992;28;20241;-79
2021/04/03 01:08:18;;;;;;;4.05;1.90;;;;;;;7.31;52.04;98246.81;5046151;28;20238;-80
2021/04/03 01:10:46;;;;;;;5.32;2.10;;;;;;;7.25;52.67;98243.53;5043699;28;20627;-78
2021/04/03 01:13:34;;;;;;;4.85;2.15;;;;;;;7.25;52.46;98243.53;5044263;28;20229;-79
2021/04/03 01:16:05;;;;;;;4.45;1.92;;;;;;;7.26;52.44;98242.63;5046679;28;20238;-80
2021/04/03 01:18:39;;;;;;;4.47;2.20;;;;;;;7.25;52.11;98241.78;5046991;28;20945;-78
2021/04/03 01:21:09;;;;;;;4.05;1.88;;;;;;;7.24;51.94;98234.03;5044797;28;20246;-79
2021/04/03 01:23:55;;;;;;;4.13;2.15;;;;;;;7.20;52.52;98228.06;5048108;28;20216;-78
2021/04/03 01:26:49;;;;;;;7.05;2.35;;;;;;;7.25;52.43;98225.38;5046605;28;20241;-79
2021/04/03 01:29:43;;;;;;;3.63;1.85;;;;;;;7.23;52.19;98228.00;5048513;28;20809;-78
2021/04/03 01:32:09;;;;;;;6.20;2.10;;;;;;;7.18;52.14;98229.00;5036294;28;20238;-79
2021/04/03 01:34:37;;;;;;;6.88;2.20;;;;;;;7.14;52.20;98223.88;5040610;28;20237;-79
2021/04/03 01:37:05;;;;;;;4.85;1.95;;;;;;;7.11;52.41;98221.38;5042668;28;20654;-78
2021/04/03 01:39:34;;;;;;;7.03;2.10;;;;;;;7.08;51.92;98224.03;5043060;28;20226;-79
2021/04/03 01:42:03;;;;;;;3.97;1.70;;;;;;;7.03;52.34;98223.25;5041313;28;20230;-80
2021/04/03 01:44:32;;;;;;;4.18;2.17;;;;;;;7.01;52.44;98217.25;5043503;28;20202;-80
2021/04/03 01:47:00;;;;;;;4.25;2.00;;;;;;;7.03;52.56;98220.66;5046597;28;20246;-79
2021/04/03 01:49:26;;;;;;;4.40;2.05;;;;;;;7.00;52.80;98218.13;5046061;28;20230;-79
2021/04/03 01:51:53;;;;;;;6.68;1.80;;;;;;;7.02;52.62;98220.69;5050138;28;20268;-80
2021/04/03 01:54:21;;;;;;;7.00;1.92;;;;;;;7.02;52.34;98218.97;5045194;28;20287;-80
2021/04/03 01:56:49;;;;;;;5.95;1.67;;;;;;;7.01;52.73;98227.63;5044191;28;20268;-79
2021/04/03 01:59:15;;;;;;;4.95;2.00;;;;;;;7.02;52.22;98221.59;5043687;28;20236;-79
2021/04/03 02:01:44;;;;;;;5.22;2.17;;;;;;;7.03;52.69;98227.59;5042937;28;20240;-78
2021/04/03 02:04:12;;;;;;;5.35;2.15;;;;;;;7.02;52.41;98229.34;5043617;28;20982;-79
2021/04/03 02:06:41;;;;;;;4.78;1.90;;;;;;;7.03;52.57;98225.84;5045615;28;20249;-79
2021/04/03 02:09:09;;;;;;;4.43;2.03;;;;;;;7.11;52.43;98226.56;5045848;28;20234;-78
2021/04/03 02:11:37;;;;;;;3.70;1.63;;;;;;;7.13;52.08;98232.56;5044017;28;20267;-79
2021/04/03 02:14:04;;;;;;;6.60;2.20;;;;;;;7.08;52.41;98231.81;5044421;28;20237;-77
2021/04/03 02:16:32;;;;;;;6.88;2.05;;;;;;;7.06;52.33;98218.00;5041693;28;20242;-78
2021/04/03 02:19:00;;;;;;;4.35;1.80;;;;;;;7.04;52.59;98230.16;5042047;28;20819;-80
2021/04/03 02:21:27;;;;;;;3.05;1.45;;;;;;;7.03;52.41;98227.59;5041066;28;20295;-78
2021/04/03 02:23:53;;;;;;;5.60;2.35;;;;;;;7.08;52.45;98229.22;5043010;28;20255;-78
2021/04/03 02:26:19;;;;;;;4.57;1.60;;;;;;;7.10;52.31;98227.44;5045966;28;20245;-78
2021/04/03 02:28:45;;;;;;;3.58;2.13;;;;;;;7.07;52.18;98222.28;5046679;28;20229;-80
2021/04/03 02:31:11;;;;;;;4.05;1.80;;;;;;;7.05;52.13;98226.66;5047048;28;20241;-78
2021/04/03 02:33:37;;;;;;;3.50;1.70;;;;;;;7.05;52.45;98231.84;5044101;28;20238;-79
2021/04/03 02:36:04;;;;;;;3.58;1.92;;;;;;;7.07;52.56;98227.50;5045894;28;20237;-77
2021/04/03 02:38:30;;;;;;;3.47;1.60;;;;;;;7.07;52.43;98222.28;5043739;28;20225;-79
2021/04/03 02:40:56;;;;;;;2.55;1.60;;;;;;;7.01;52.62;98232.81;5044001;28;20260;-78
2021/04/03 02:43:27;;;;;;;3.22;1.88;;;;;;;6.95;52.83;98233.81;5043420;28;20206;-80
2021/04/03 02:45:57;;;;;;;5.50;1.73;;;;;;;6.90;52.93;98234.81;5046388;28;20233;-78
2021/04/03 02:48:23;;;;;;;3.70;1.52;;;;;;;6.87;53.00;98229.69;5045523;28;20867;-79
2021/04/03 02:50:51;;;;;;;5.13;1.83;;;;;;;6.83;53.43;98231.50;5046304;28;20296;-79
2021/04/03 02:53:21;;;;;;;4.15;1.52;;;;;;;6.82;53.42;98226.34;5042266;28;20218;-79
2021/04/03 02:55:50;;;;;;;3.70;1.33;;;;;;;6.80;53.51;98229.00;5043223;28;20327;-80
2021/04/03 02:58:18;;;;;;;3.60;1.52;;;;;;;6.78;53.60;98225.56;5043152;28;20230;-78
2021/04/03 03:00:45;;;;;;;4.40;1.80;;;;;;;6.74;53.77;98224.75;5042214;28;20279;-80
2021/04/03 03:03:12;;;;;;;4.25;1.70;;;;;;;6.70;53.61;98224.88;5046169;28;20687;-79
2021/04/03 03:05:38;;;;;;;2.42;1.35;;;;;;;6.67;53.80;98220.63;5043821;28;20620;-78
2021/04/03 03:08:05;;;;;;;5.38;1.60;;;;;;;6.57;53.90;98211.34;5042764;28;20234;-81
2021/04/03 03:10:32;;;;;;;3.65;1.52;;;;;;;6.58;53.87;98215.66;5039453;28;20238;-78
2021/04/03 03:12:59;;;;;;;7.30;1.73;;;;;;;6.54;54.02;98213.97;5039494;28;20219;-80
2021/04/03 03:15:29;;;;;;;5.97;1.63;;;;;;;6.55;54.02;98223.47;5041688;28;20749;-79
2021/04/03 03:17:56;;;;;;;2.75;1.55;;;;;;;6.64;53.97;98233.66;5041383;28;20236;-79
2021/04/03 03:20:22;;;;;;;2.38;1.30;;;;;;;6.65;53.80;98224.97;5044217;28;20723;-79
2021/04/03 03:22:49;;;;;;;4.03;1.40;;;;;;;6.63;54.08;98229.34;5045731;28;20871;-79
2021/04/03 03:25:15;;;;;;;3.92;1.67;;;;;;;6.68;53.90;98229.25;5047899;28;20226;-78
2021/04/03 03:27:43;;;;;;;1.60;1.27;;;;;;;6.69;53.91;98225.75;5044481;28;20245;-78
2021/04/03 03:30:13;;;;;;;4.13;1.60;;;;;;;6.71;53.75;98230.03;5042308;28;20220;-80
2021/04/03 03:32:39;;;;;;;3.83;1.67;;;;;;;6.73;53.73;98235.19;5043413;28;20210;-78
2021/04/03 03:35:06;;;;;;;3.58;1.90;;;;;;;6.71;53.76;98237.81;5040922;28;20241;-80
2021/04/03 03:40:02;;;;;;;5.55;1.75;;;;;;;6.72;53.57;98252.47;5103109;27;20554;-81
2021/04/03 03:42:28;;;;;;;4.10;1.63;;;;;;;6.75;53.53;98252.41;5095605;28;20222;-79
2021/04/03 03:44:55;;;;;;;4.35;1.95;;;;;;;6.82;53.68;98249.66;5094442;28;20204;-79
2021/04/03 03:47:21;;;;;;;3.40;1.52;;;;;;;6.85;53.50;98247.03;5114269;27;20293;-81
2021/04/03 03:49:47;;;;;;;2.25;1.30;;;;;;;6.85;53.37;98247.03;5119227;27;20214;-80
2021/04/03 03:52:13;;;;;;;2.53;1.40;;;;;;;6.77;53.31;98244.59;5119047;27;20228;-80
2021/04/03 03:54:39;;;;;;;2.92;1.50;;;;;;;6.68;53.57;98235.28;5119695;27;20238;-81
2021/04/03 03:57:07;;;;;;;3.17;1.70;;;;;;;6.65;53.35;98240.50;5113604;27;20230;-79
2021/04/03 03:59:33;;;;;;;5.45;2.05;;;;;;;6.63;53.61;98244.88;5115458;27;20239;-80
2021/04/03 04:01:59;;;;;;;3.38;1.30;;;;;;;6.65;53.68;98253.47;5115308;27;20224;-82
2021/04/03 04:04:25;;;;;;;5.32;1.67;;;;;;;6.67;53.61;98258.63;5115730;27;20392;-81
2021/04/03 04:06:52;;;;;;;3.78;1.35;;;;;;;6.70;53.57;98256.84;5115503;27;20740;-79
2021/04/03 04:09:18;;;;;;;4.60;1.60;;;;;;;6.79;53.54;98253.19;5111795;27;20765;-79
2021/04/03 04:11:44;;;;;;;3.58;1.73;;;;;;;6.86;53.30;98259.13;5117913;27;20239;-79
2021/04/03 04:14:11;;;;;;;3.67;1.60;;;;;;;6.87;53.17;98255.63;5118517;27;20871;-81
2021/04/03 04:16:37;;;;;;;4.03;1.70;;;;;;;6.87;53.38;98261.66;5113806;27;20250;-80
2021/04/03 04:19:03;;;;;;;1.90;1.48;;;;;;;6.87;53.26;98266.00;5115369;27;20299;-80
2021/04/03 04:21:29;;;;;;;4.78;1.77;;;;;;;6.81;53.35;98271.31;5114704;27;20235;-80
2021/04/03 04:23:56;;;;;;;3.20;1.80;;;;;;;6.68;53.82;98261.19;5116410;27;20626;-80
2021/04/03 04:26:22;;;;;;;2.03;1.20;;;;;;;6.54;53.92;98268.41;5117093;27;20282;-81
2021/04/03 04:28:48;;;;;;;11.45;6.25;;;;;;;6.44;53.97;98267.75;5110821;27;20222;-81
2021/04/03 04:31:14;;;;;;;10.02;5.00;;;;;;;6.35;54.24;98279.13;5116340;27;20609;-79
2021/04/03 04:33:40;;;;;;;3.67;2.17;;;;;;;6.29;54.58;98284.44;5116579;27;20219;-79
2021/04/03 04:36:07;;;;;;;5.70;1.83;;;;;;;6.26;54.62;98283.66;5113986;27;20977;-80
2021/04/03 04:38:33;;;;;;;6.68;2.10;;;;;;;6.22;55.01;98282.84;5115981;27;20246;-79
2021/04/03 04:40:59;;;;;;;4.00;1.45;;;;;;;6.14;55.47;98295.09;5110830;27;20728;-80
2021/04/03 04:43:25;;;;;;;3.40;1.70;;;;;;;6.14;55.54;98298.53;5119655;27;20215;-79
2021/04/03 04:45:51;;;;;;;8.52;1.80;;;;;;;6.14;55.62;98300.28;5113560;27;20256;-80
2021/04/03 04:48:18;;;;;;;4.13;1.40;;;;;;;6.18;55.63;98312.28;5112073;27;20411;-80
2021/04/03 04:50:44;;;;;;;3.35;1.67;;;;;;;6.20;55.33;98310.53;5102609;27;20266;-80
2021/04/03 04:53:10;;;;;;;4.78;1.50;;;;;;;6.25;55.65;98313.91;5104624;27;20248;-79
2021/04/03 04:55:39;;;;;;;3.65;1.70;;;;;;;6.32;55.67;98320.66;5103272;27;20260;-82
2021/04/03 04:58:05;;;;;;;3.42;1.48;;;;;;;6.38;55.80;98317.09;5107663;27;20659;-78
2021/04/03 05:00:31;;;;;;;4.22;1.75;;;;;;;6.34;55.74;98318.91;5101209;27;20735;-79
2021/04/03 05:02:57;;;;;;;5.75;2.00;;;;;;;6.36;55.57;98319.72;5079049;27;20201;-79
2021/04/03 05:05:24;;;;;;;3.40;1.88;;;;;;;6.39;55.66;98330.91;5096693;27;20211;-79
2021/04/03 05:07:50;;;;;;;3.47;1.60;;;;;;;6.41;55.83;98326.56;5101171;27;20922;-78
2021/04/03 05:10:17;;;;;;;4.10;1.60;;;;;;;6.41;55.83;98329.13;5099046;27;20272;-79
2021/04/03 05:12:43;;;;;;;5.00;1.90;;;;;;;6.37;56.56;98339.56;5103399;27;20690;-81
2021/04/03 05:15:10;;;;;;;4.55;2.00;;;;;;;6.31;56.75;98339.69;5105218;27;20223;-78
2021/04/03 05:17:36;;;;;;;3.78;1.63;;;;;;;6.25;57.11;98334.63;5107851;27;20286;-80
2021/04/03 05:20:02;;;;;;;4.10;2.00;;;;;;;6.23;57.10;98344.16;5106568;27;20243;-78
2021/04/03 05:22:29;;;;;;;4.97;1.80;;;;;;;6.22;57.39;98350.22;5109056;27;20236;-79
2021/04/03 05:24:55;;;;;;;3.17;1.83;;;;;;;6.25;57.68;98349.28;5102408;27;20212;-78
2021/04/03 05:27:21;;;;;;;3.50;2.00;;;;;;;6.28;57.80;98350.09;5103518;27;20791;-78
2021/04/03 05:29:47;;;;;;;4.18;2.08;;;;;;;6.29;58.01;98351.81;5105865;27;20245;-80
2021/04/03 05:32:14;;;;;;;3.95;1.67;;;;;;;6.28;57.99;98352.66;5104920;27;20232;-79
2021/04/03 05:34:40;;;;;;;6.00;1.98;;;;;;;6.25;57.79;98346.69;5100226;27;20216;-80
2021/04/03 05:37:06;;;;;;;3.35;1.83;;;;;;;6.24;57.99;98357.94;5102478;27;20239;-79
2021/04/03 05:39:32;;;;;;;5.15;1.90;;;;;;;6.23;58.33;98358.81;5098798;27;20240;-79
2021/04/03 05:41:58;;;;;;;5.75;2.20;;;;;;;6.18;58.33;98353.75;5102670;27;20617;-79
2021/04/03 05:44:25;;;;;;;6.47;2.20;;;;;;;6.14;58.43;98362.44;5104269;27;20620;-79
2021/04/03 05:46:51;;;;;;;4.72;2.40;;;;;;;6.11;58.66;98367.69;5099157;27;20233;-80
2021/04/03 05:49:18;;;;;;;3.95;2.08;;;;;;;6.07;58.83;98372.03;5105954;27;20223;-78
2021/04/03 05:51:44;;;;;;;3.22;2.15;;;;;;;6.07;58.97;98372.03;5106465;27;20232;-78
2021/04/03 05:54:10;;;;;;;6.43;1.95;;;;;;;6.02;59.17;98373.00;5104199;27;20208;-78
2021/04/03 05:56:37;;;;;;;4.07;2.10;;;;;;;6.00;59.34;98375.63;5099661;27;20232;-79
2021/04/03 05:59:03;;;;;;;4.55;2.20;;;;;;;6.02;59.55;98378.19;5102121;27;20259;-78
2021/04/03 06:01:30;;;;;;;4.95;2.33;;;;;;;6.02;59.73;98380.78;5098221;27;20628;-79
2021/04/03 06:03:56;;;;;;;3.90;2.20;;;;;;;6.02;59.89;98370.41;5104940;27;20576;-80
2021/04/03 06:06:24;;;;;;;3.05;1.80;;;;;;;5.93;60.01;98374.81;5107189;27;20645;-79
2021/04/03 06:08:51;;;;;;;4.00;1.88;;;;;;;5.90;60.06;98374.88;5106169;27;20238;-79
2021/04/03 06:11:19;;;;;;;6.05;2.35;;;;;;;5.93;60.65;98371.38;5099981;27;20228;-80
2021/04/03 06:14:03;;;;;;;5.53;2.53;;;;;;;5.89;61.67;98373.16;5098466;27;20212;-78
2021/04/03 06:16:31;;;;;;;5.82;2.47;;;;;;;5.97;60.35;98370.47;5103845;27;20761;-79
2021/04/03 06:19:08;;;;;;;5.25;2.45;;;;;;;5.91;61.22;98376.59;5097842;27;20240;-79
2021/04/03 06:21:34;;;;;;;6.53;2.67;;;;;;;5.94;60.44;98376.53;5103986;27;20235;-80
2021/04/03 06:24:00;;;;;;;7.45;2.72;;;;;;;5.95;60.40;98383.44;5101106;27;20208;-78
2021/04/03 06:26:26;;;;;;;6.45;2.85;;;;;;;6.08;60.28;98393.63;5104056;27;20244;-77
2021/04/03 06:28:53;;;;;;;6.03;2.53;;;;;;;6.18;60.06;98397.78;5100287;27;20232;-79
2021/04/03 06:31:20;;;;;;;4.22;2.35;;;;;;;6.21;60.06;98387.34;5104253;27;20515;-79
2021/04/03 06:33:47;;;;;;;5.22;2.40;;;;;;;6.20;60.08;98396.00;5101799;27;20285;-78
2021/04/03 06:36:14;;;;;;;7.80;3.00;;;;;;;6.15;60.54;98398.66;5101481;27;20232;-78
2021/04/03 06:38:43;;;;;;;5.80;2.42;;;;;;;6.13;60.54;98402.16;5097230;27;20732;-80
2021/04/03 06:41:20;;;;;;;4.70;2.10;;;;;;;6.08;60.83;98391.88;5100533;27;20235;-79
2021/04/03 06:44:03;;;;;;;6.28;2.75;;;;;;;6.13;60.61;98403.00;5100308;27;20789;-79
2021/04/03 06:46:30;;;;;;;8.00;2.63;;;;;;;6.16;60.70;98402.13;5099606;27;20231;-79
2021/04/03 06:49:28;;;;;;;6.30;3.03;;;;;;;6.16;60.97;98404.72;5101526;27;20712;-79
2021/04/03 06:51:55;;;;;;;5.55;2.30;;;;;;;6.27;60.25;98405.38;5094428;27;20235;-80
2021/04/03 06:54:21;;;;;;;5.65;2.58;;;;;;;6.37;60.32;98398.28;5101301;27;20221;-80
2021/04/03 06:56:48;;;;;;;5.45;2.40;;;;;;;6.42;60.06;98408.59;5097445;27;20232;-80
2021/04/03 06:59:17;;;;;;;6.63;2.63;;;;;;;6.50;60.12;98411.88;5099605;27;20733;-80
2021/04/03 07:01:49;;;;;;;4.85;2.42;;;;;;;6.56;60.06;98416.94;5104762;27;20663;-81
2021/04/03 07:04:22;;;;;;;5.47;2.50;;;;;;;6.57;60.41;98413.50;5099234;27;20205;-79
2021/04/03 07:06:50;;;;;;;7.15;3.03;;;;;;;6.60;60.06;98417.75;5103886;27;20293;-79
2021/04/03 07:09:18;;;;;;;5.85;2.67;;;;;;;6.69;59.81;98412.41;5095076;27;20232;-78
2021/04/03 07:11:46;;;;;;;5.70;2.35;;;;;;;6.63;59.51;98418.56;5102937;27;20716;-79
2021/04/03 07:14:16;;;;;;;6.45;2.92;;;;;;;6.72;59.68;98423.56;5103294;27;20233;-78
2021/04/03 07:16:43;;;;;;;8.60;2.65;;;;;;;6.74;59.22;98421.78;5097060;27;20235;-78
2021/04/03 07:19:10;;;;;;;7.55;2.85;;;;;;;6.84;58.73;98432.88;5096477;27;20232;-79
2021/04/03 07:21:36;;;;;;;5.88;2.45;;;;;;;6.81;58.53;98422.53;5099840;27;20223;-77
2021/04/03 07:24:03;;;;;;;6.72;2.72;;;;;;;6.89;59.10;98432.75;5098985;27;20442;-79
2021/04/03 07:26:30;;;;;;;11.35;2.95;;;;;;;6.98;58.69;98437.78;5103047;27;20236;-78
2021/04/03 07:28:56;;;;;;;7.65;2.53;;;;;;;7.02;58.48;98436.84;5100844;27;20356;-80
2021/04/03 07:31:41;;;;;;;6.72;2.45;;;;;;;6.94;58.35;98449.94;5104274;27;20238;-78
2021/04/03 07:34:08;;;;;;;6.75;2.40;;;;;;;6.85;58.39;98444.09;5104188;27;21069;-79
2021/04/03 07:36:37;;;;;;;5.80;2.30;;;;;;;6.72;58.35;98446.91;5103535;28;20229;-79
2021/04/03 07:39:05;;;;;;;4.32;2.33;;;;;;;6.72;58.23;98459.84;5100362;28;20235;-79
2021/04/03 07:41:37;;;;;;;6.13;2.40;;;;;;;6.81;58.39;98460.59;5098358;27;20223;-78
2021/04/03 07:44:14;;;;;;;5.25;2.30;;;;;;;6.85;57.89;98451.88;5096565;28;20306;-80
2021/04/03 07:46:44;;;;;;;6.07;2.15;;;;;;;6.88;57.53;98457.84;5101645;27;20622;-78
2021/04/03 07:49:11;;;;;;;4.15;1.60;;;;;;;6.91;57.53;98449.16;5103716;28;20276;-80
2021/04/03 07:51:48;;;;;;;4.57;1.90;;;;;;;6.86;56.15;98461.38;5103834;28;20247;-81
2021/04/03 07:54:30;;;;;;;3.33;1.80;;;;;;;6.93;56.39;98462.97;5100632;27;20204;-78
2021/04/03 07:57:04;;;;;;;4.18;1.92;;;;;;;7.03;56.11;98459.28;5096675;27;20276;-79
2021/04/03 07:59:52;;;;;;;9.32;4.78;;;;;;;7.08;53.85;98472.19;5101602;28;20234;-79
2021/04/03 08:02:21;;;;;;;3.15;1.60;;;;;;;7.11;52.88;98473.00;5098828;28;20224;-78
2021/04/03 08:04:47;;;;;;;4.55;1.55;;;;;;;7.12;52.96;98469.50;5099941;28;20205;-80
2021/04/03 08:07:14;;;;;;;2.28;1.30;;;;;;;7.13;51.90;98476.41;5100554;28;20251;-80
2021/04/03 08:09:40;;;;;;;2.83;1.73;;;;;;;7.14;51.85;98478.09;5102473;28;20234;-79
2021/04/03 08:12:07;;;;;;;4.47;1.40;;;;;;;7.22;52.34;98479.69;5103900;28;20744;-77
2021/04/03 08:14:34;;;;;;;5.88;2.00;;;;;;;7.31;52.51;98489.88;5100021;28;20215;-78
2021/04/03 08:17:04;;;;;;;3.70;1.98;;;;;;;7.28;53.26;98484.78;5099594;28;20231;-77
2021/04/03 08:19:32;;;;;;;5.05;1.80;;;;;;;7.27;53.09;98498.63;5103462;28;20727;-78
2021/04/03 08:21:58;;;;;;;4.20;2.28;;;;;;;7.30;53.71;98498.56;5100035;27;20232;-77
2021/04/03 08:24:25;;;;;;;8.27;2.40;;;;;;;7.38;54.17;98501.00;5101823;28;20207;-79
2021/04/03 08:26:52;;;;;;;4.47;2.53;;;;;;;7.49;55.04;98505.09;5105096;27;20229;-79
2021/04/03 08:29:23;;;;;;;6.40;2.08;;;;;;;7.58;54.87;98504.03;5103613;27;20227;-79
2021/04/03 08:31:50;;;;;;;5.85;2.47;;;;;;;7.61;55.29;98504.00;5104519;27;20790;-79
2021/04/03 08:34:16;;;;;;;6.18;2.17;;;;;;;7.67;54.56;98505.59;5101478;27;20217;-80
2021/04/03 08:36:43;;;;;;;6.80;2.33;;;;;;;7.69;54.67;98503.81;5099714;27;20229;-80
2021/04/03 08:39:12;;;;;;;6.88;2.33;;;;;;;7.80;54.41;98509.63;5096560;27;20233;-82
2021/04/03 08:41:39;;;;;;;7.72;2.13;;;;;;;7.76;54.05;98512.34;5101321;27;21011;-79
2021/04/03 08:44:15;;;;;;;8.23;3.03;;;;;;;7.79;54.28;98510.50;5100666;27;20208;-77
2021/04/03 08:46:41;;;;;;;5.72;2.22;;;;;;;7.90;54.22;98518.06;5099230;27;20322;-78
2021/04/03 08:49:08;;;;;;;4.03;2.10;;;;;;;7.93;53.60;98509.38;5101393;27;20232;-78
2021/04/03 08:51:35;;;;;;;5.63;2.13;;;;;;;7.95;53.87;98500.66;5103563;27;20236;-79
2021/04/03 08:54:03;;;;;;;3.55;2.35;;;;;;;8.00;53.98;98513.56;5102187;27;20956;-79
2021/04/03 08:56:30;;;;;;;5.90;2.13;;;;;;;8.10;53.36;98512.44;5102520;27;20259;-78
2021/04/03 08:58:58;;;;;;;5.30;2.42;;;;;;;8.32;53.56;98514.53;5100156;27;20232;-80
2021/04/03 09:01:24;;;;;;;6.03;3.08;;;;;;;8.50;53.62;98516.72;5102172;27;20240;-79
2021/04/03 09:03:52;;;;;;;4.38;2.08;;;;;;;8.64;52.50;98508.59;5101908;27;20735;-78
2021/04/03 09:06:42;;;;;;;9.00;2.53;;;;;;;8.59;52.54;98516.50;5103190;27;20682;-81
2021/04/03 09:09:10;;;;;;;8.73;2.67;;;;;;;8.47;52.16;98516.78;5102704;27;20313;-80
2021/04/03 09:11:37;;;;;;;4.45;1.98;;;;;;;8.30;52.72;98531.00;5101412;27;20237;-80
2021/04/03 09:14:03;;;;;;;5.90;2.17;;;;;;;8.30;52.38;98531.00;5103927;27;21040;-81
2021/04/03 09:16:36;;;;;;;2.60;1.95;;;;;;;8.27;51.74;98530.22;5103817;27;20235;-79
2021/04/03 09:19:03;;;;;;;4.57;1.98;;;;;;;8.38;52.37;98529.97;5101980;27;20247;-80
2021/04/03 09:21:29;;;;;;;5.10;2.03;;;;;;;8.41;51.43;98530.75;5100804;27;20242;-81
2021/04/03 09:23:55;;;;;;;4.57;1.98;;;;;;;8.57;52.26;98523.50;5099981;27;20225;-80
2021/04/03 09:26:32;;;;;;;4.30;1.67;;;;;;;8.65;50.03;98537.16;5100331;27;20723;-82
2021/04/03 09:29:07;;;;;;;3.85;1.92;;;;;;;8.68;49.72;98531.88;5100730;27;20247;-83
2021/04/03 09:31:40;;;;;;;5.13;1.83;;;;;;;8.84;49.98;98536.69;5101916;27;20230;-81
2021/04/03 09:34:07;;;;;;;5.65;1.40;;;;;;;9.02;50.75;98538.84;5099824;27;20581;-81
2021/04/03 09:36:44;;;;;;;5.40;2.03;;;;;;;9.16;50.48;98537.63;5104916;27;20235;-81
2021/04/03 09:39:14;;;;;;;3.83;1.63;;;;;;;9.19;50.41;98545.31;5098837;27;20243;-82
2021/04/03 09:41:46;;;;;;;4.60;1.98;;;;;;;9.19;49.42;98548.81;5101543;27;21103;-80
2021/04/03 09:44:12;;;;;;;4.05;1.92;;;;;;;8.96;49.18;98544.19;5101365;27;20207;-80
2021/04/03 09:46:38;;;;;;;7.28;2.25;;;;;;;8.90;50.06;98552.16;5103254;27;20686;-81
2021/04/03 09:49:08;;;;;;;7.97;2.40;;;;;;;8.65;49.35;98555.34;5103928;27;20619;-81
2021/04/03 09:51:34;;;;;;;4.47;1.58;;;;;;;8.50;49.61;98553.13;5096413;27;20236;-80
2021/04/03 09:54:00;;;;;;;5.82;1.92;;;;;;;8.54;50.85;98549.56;5100424;27;20716;-80
2021/04/03 09:56:26;;;;;;;4.13;1.73;;;;;;;8.64;50.22;98561.47;5102006;27;20228;-80
2021/04/03 09:58:53;;;;;;;8.40;4.95;;;;;;;8.71;50.69;98566.50;5105753;27;20244;-80
2021/04/03 10:01:20;;;;;;;6.05;1.98;;;;;;;8.71;50.21;98556.09;5103202;27;20231;-80
2021/04/03 10:03:46;;;;;;;4.32;1.88;;;;;;;8.79;49.62;98565.44;5102064;27;20215;-81
2021/04/03 10:06:12;;;;;;;4.13;1.70;;;;;;;8.93;49.00;98562.47;5100833;27;20232;-80
2021/04/03 10:08:38;;;;;;;3.67;1.70;;;;;;;8.99;49.13;98562.34;5096340;27;20670;-81
2021/04/03 10:11:05;;;;;;;3.17;1.40;;;;;;;9.22;48.38;98566.06;5101704;27;20235;-80
2021/04/03 10:13:31;;;;;;;3.05;1.45;;;;;;;9.36;48.19;98561.34;5102419;27;20216;-81
2021/04/03 10:15:58;;;;;;;5.32;1.70;;;;;;;9.56;48.65;98562.56;5097015;27;20259;-79
2021/04/03 10:18:24;;;;;;;4.63;1.63;;;;;;;9.82;47.85;98560.06;5099061;27;20251;-79
2021/04/03 10:20:51;;;;;;;2.85;1.40;;;;;;;10.09;46.94;98554.06;5103575;27;20247;-81
2021/04/03 10:23:17;;;;;;;2.67;1.48;;;;;;;10.44;47.00;98552.16;5102850;27;20213;-79
2021/04/03 10:25:43;;;;;;;2.38;1.55;;;;;;;10.69;46.46;98553.09;5096258;27;20232;-80
2021/04/03 10:28:10;;;;;;;4.80;1.98;;;;;;;10.65;46.00;98550.66;5101425;27;20233;-81
2021/04/03 10:30:36;;;;;;;3.50;1.67;;;;;;;10.46;46.45;98556.44;5099296;27;20273;-79
2021/04/03 10:33:03;;;;;;;7.68;1.92;;;;;;;10.25;46.73;98559.69;5099778;27;20211;-80
2021/04/03 10:35:30;;;;;;;3.67;2.05;;;;;;;10.09;46.44;98567.09;5101216;27;20227;-78
2021/04/03 10:37:56;;;;;;;4.45;1.90;;;;;;;9.93;47.13;98558.91;5101387;27;20246;-79
2021/04/03 10:40:22;;;;;;;13.45;7.90;;;;;;;9.94;47.06;98555.38;5105665;27;20712;-81
2021/04/03 10:42:48;;;;;;;6.97;4.13;;;;;;;10.06;46.90;98565.47;5100922;27;20215;-79
2021/04/03 10:45:14;;;;;;;4.32;1.63;;;;;;;10.32;46.33;98553.41;5100678;27;20224;-80
2021/04/03 10:47:43;;;;;;;3.28;1.17;;;;;;;10.69;45.13;98558.31;5107276;27;20739;-81
2021/04/03 10:50:12;;;;;;;3.45;1.50;;;;;;;10.95;44.82;98556.59;5103734;27;21106;-80
2021/04/03 10:52:38;;;;;;;2.88;1.45;;;;;;;11.03;44.42;98551.09;5098797;27;20212;-81
2021/04/03 10:55:05;;;;;;;3.78;1.63;;;;;;;10.93;44.22;98556.63;5102153;27;20890;-78
2021/04/03 10:57:31;;;;;;;4.43;1.90;;;;;;;10.57;45.09;98550.91;5100982;27;20251;-80
2021/04/03 10:59:57;;;;;;;6.93;2.50;;;;;;;10.26;45.11;98550.97;5097003;27;20701;-81
2021/04/03 11:02:23;;;;;;;7.18;1.83;;;;;;;10.18;45.86;98559.88;5103743;27;21015;-82
2021/04/03 11:04:52;;;;;;;6.68;2.05;;;;;;;10.19;46.37;98558.97;5105503;27;20227;-80
2021/04/03 11:07:19;;;;;;;6.10;2.20;;;;;;;10.12;45.99;98552.22;5099815;27;20254;-81
2021/04/03 11:09:45;;;;;;;4.43;2.08;;;;;;;9.98;46.16;98549.19;5098156;27;20240;-81
2021/04/03 11:12:11;;;;;;;4.22;1.77;;;;;;;9.79;46.12;98554.94;5098345;27;20293;-80
2021/04/03 11:14:38;;;;;;;3.05;1.90;;;;;;;9.79;46.36;98547.13;5101723;27;20221;-79
2021/04/03 11:17:04;;;;;;;2.97;1.27;;;;;;;9.79;46.37;98549.72;5099976;27;20235;-80
2021/04/03 11:19:30;;;;;;;2.67;1.33;;;;;;;9.86;46.39;98563.44;5107054;27;20298;-79
2021/04/03 11:21:57;;;;;;;4.90;1.58;;;;;;;9.85;46.20;98553.91;5104679;27;20235;-81
2021/04/03 11:24:24;;;;;;;7.22;2.35;;;;;;;9.81;46.31;98555.78;5102092;27;20205;-80
2021/04/03 11:26:51;;;;;;;3.55;1.60;;;;;;;9.87;45.84;98556.47;5100704;27;20295;-80
2021/04/03 11:29:17;;;;;;;3.67;1.50;;;;;;;10.15;45.17;98549.53;5099941;27;20608;-80
2021/04/03 11:31:43;;;;;;;4.05;1.50;;;;;;;10.50;44.69;98554.59;5098114;27;20233;-81
2021/04/03 11:34:09;;;;;;;4.10;1.40;;;;;;;11.12;44.84;98548.19;5098566;28;20323;-79
2021/04/03 11:36:35;;;;;;;3.35;1.35;;;;;;;11.62;43.25;98544.72;5100695;27;20286;-81
2021/04/03 11:39:01;;;;;;;2.80;1.17;;;;;;;11.67;42.83;98550.59;5101301;28;20716;-82
2021/04/03 11:41:28;;;;;;;3.53;1.30;;;;;;;11.39;42.98;98543.75;5103616;28;21041;-80
2021/04/03 11:43:56;;;;;;;4.45;1.88;;;;;;;10.91;42.90;98548.00;5095954;28;20220;-82
2021/04/03 11:46:21;;;;;;;3.53;1.65;;;;;;;10.68;43.37;98551.41;5099804;27;20240;-79
2021/04/03 11:48:47;;;;;;;4.53;1.55;;;;;;;10.46;43.97;98547.75;5100367;28;20266;-81